Terminal Aerodrome Forecast
Issued by NWS

Home | Current Version | Previous Version | Graphics & Text | Print | Product List | Glossary On
Versions: 1 2 3 4 5 6 7 8 9 10 11 12 13 14 15 16 17
294
FTUS43 KICT 251135
TAFSLN
TAF
KSLN 251135Z 2512/2612 36010KT P6SM -RA VCTS SCT015 BKN040CB
      TEMPO 2512/2514 VRB12KT -TSRA BKN015CB
     FM251400 07010KT P6SM SCT040 BKN100=

USA.gov is the U.S. government's official web portal to all federal, state and local government web resources and services.